OEDF/DMM METAR and TAF weather

Enter ICAO airport designator
Station Type Date Time Source
OEDF METAR 2018/12/15 22:00 UTC NOAA

OEDF 152200Z 30009KT CAVOK 16/10 Q1023 NOSIG


Station Type Date Time Source
OEDF Decoded METAR 2018/12/15 22:00 UTC NOAA

Dammam-King Fahd International Airport, Saudi Arabia (OEDF) 26-28N 049-47E
Dec 15, 2018 - 05:00 PM EST / 2018.12.15 2200 UTC
Wind: from the WNW (300 degrees) at 10 MPH (9 KT):0
Visibility: greater than 7 mile(s):0
Temperature: 60 F (16 C)
Dew Point: 50 F (10 C)
Relative Humidity: 67%
Pressure (altimeter): 30.21 in. Hg (1023 hPa)
ob: OEDF 152200Z 30009KT CAVOK 16/10 Q1023 NOSIG
cycle: 22

Station Type Date Time Source
OEDF TAF 2018/12/15 18:03 UTC NOAA

TAF TAF OEDF 151500Z 1518/1624 32009KT 8000 NSC
TEMPO 1602/1606 3500 HZ BR FEW040 SCT100
BECMG 1608/1610 36010KT


Example: see airport list